• Join FlightAware (Why Join?)
  • Login
  • US Flag 
02:17PM EDT


 

Airport Tracker/Info


-or-


 

Live Flight TrackerFlight Track Log ✈ UAL5829 ✈ 25-Apr-2013 ✈ KIAD - KORF

Flight Track Log - Related Links

Times and Time Zones

All times are in EDT time to prevent confusion due to time zone crossing. See the UAL5829 flight status page for this flight to view local times or setup timezone preferences in your user account.

Time Position Orientation Groundspeed Altitude Reporting Facility
EDT Latitude Longitude Course Direction KTS MPH feet Rate Location/Type
12:35PM 39.0000 -77.4333 126° Southeast 203 234 2,500  Level Potomac TRACON
12:36PM 39.0667 -77.4333 360° North 245 282 4,800 2,340 Climbing Potomac TRACON
12:37PM 39.1333 -77.4167 11° North 270 311 7,200 2,280 Climbing Potomac TRACON
12:38PM 38.7550 -77.0932 123° Southeast  Level FlightAware Approximate
12:38PM 39.1667 -77.3167 67° East 294 338 9,600  Level Potomac TRACON
12:39PM 38.7079 -77.0006 125° Southeast  Level FlightAware Approximate
12:39PM 39.1333 -77.2167 113° Southeast 331 381 10,000  Level Potomac TRACON
12:40PM 38.6586 -76.9100 125° Southeast  Level FlightAware Approximate
12:40PM 39.0833 -77.1167 123° Southeast 364 419 11,100  Level Potomac TRACON
12:41PM 38.6089 -76.8197 126° Southeast  Level FlightAware Approximate
12:41PM 39.0167 -77.0167 131° Southeast 368 423 13,000  Level Potomac TRACON
12:42PM 38.9333 -76.9500 148° Southeast 367 422 14,000 240 Climbing Potomac TRACON
12:45PM 38.7092 -76.8208 156° South 392 451 14,000  Level Washington Center
12:46PM 38.6158 -76.7661 155° Southeast 380 437 14,000  Level Washington Center
12:47PM 38.5181 -76.7222 161° South 380 437 14,000  Level Washington Center
12:48PM 38.4225 -76.7100 174° South 360 414 14,000  Level Washington Center
12:49PM 38.3244 -76.6981 175° South 360 414 14,000  Level Washington Center
12:50PM 38.2267 -76.6806 172° South 355 409 14,000  Level Washington Center
12:51PM 38.1289 -76.6686 175° South 355 409 14,000  Level Washington Center
12:52PM 38.0225 -76.6697 180° South 350 403 14,000  Level Washington Center
12:53PM 37.9264 -76.6764 183° South 350 403 14,000 -60 Level Washington Center
12:54PM 37.8306 -76.6514 168° South 345 397 13,900 -900 Descending Washington Center
12:55PM 37.7583 -76.5636 136° Southeast 399 459 12,300 -1,680 Descending Washington Center
12:55PM 37.7192 -76.5053 130° Southeast 393 452 11,400 -1,620 Descending Washington Center
12:56PM 37.6842 -76.4550 131° Southeast 357 411 10,700 -1,320 Descending Washington Center
12:56PM 37.6594 -76.4233 135° Southeast 382 440 10,200 -720 Descending Washington Center
12:57PM 37.6158 -76.3600 131° Southeast 367 422 10,000 -240 Descending Washington Center
12:57PM 37.5786 -76.3308 148° Southeast 316 364 10,000 -720 Level Washington Center
12:58PM 37.5517 -76.2939 133° Southeast 340 391 9,300 -1,620 Descending Washington Center
12:58PM 37.5247 -76.2569 133° Southeast 274 315 8,400 -1,740 Descending Washington Center
12:59PM 37.5022 -76.2147 124° Southeast 305 351 7,600 -1,380 Descending Washington Center
12:59PM 37.4667 -76.1883 149° Southeast 274 315 7,000 -1,140 Descending Washington Center
01:00PM 37.4378 -76.1672 150° Southeast 278 320 6,500 -1,020 Descending Washington Center
01:00PM 37.4003 -76.1461 156° South 271 312 6,000 -1,020 Descending Washington Center
01:01PM 37.3711 -76.1381 168° South 264 304 5,500 -900 Descending Washington Center
01:01PM 37.3189 -76.1350 177° South 263 303 5,000 -600 Descending Washington Center
01:02PM 37.2961 -76.1322 174° South 257 296 4,900  Descending Washington Center
01:02PM 37.2458 -76.1267 175° South 262 302 5,000  Climbing Washington Center
01:03PM 37.2250 -76.1267 180° South 262 302 4,900  Descending Washington Center
01:03PM 37.1708 -76.1236 177° South 258 297 5,000 60 Climbing Washington Center
01:04PM 37.1542 -76.1233 179° South 262 302 5,000  Level Washington Center
01:04PM 37.1039 -76.1414 196° South 252 290 5,000  Level Washington Center
01:05PM 37.0414 -76.1617 195° South 250 288 5,000  Level Washington Center
01:06PM 36.9828 -76.2003 208° Southwest 242 278 5,000  Level Washington Center
01:07PM 36.9283 -76.2519 217° Southwest 234 269 5,000 -300 Level Washington Center
01:08PM 36.8883 -76.2931 219° Southwest 195 224 4,500 -600 Descending Washington Center